Kendrick, Idaho
Current Conditions -  °F | °C
As of 4:56 AM on Sunday 21 Dec 2014 (Local Time) from KLWS Reporting Station
Light Rain Light Rain  
Wind Chill: 57°   Ceiling: 10000
Heat Index: 57°   Visibility: 10mi
Dew Point: 42°   Wind: 25mph
Humidity: 57%   Direction: 270°W
Pressure: 29.62"   Gusts: 39mph
Location:  46.61°N, 116.65°W
Report Text: KLWS 211256Z AUTO 27022G34KT 10SM -RA FEW060 SCT080 BKN100 14/06 A2962 RMK AO2 PK WND 26042/1239 SLP034 P0000 T01390056
Loading
Personal Weather Stations






























Interactive Weather Map New forecast layout! Learn more

10-Day Weather Forecast

Advertisements
Track Severe Weather on mobile